Carroll, Iowa
Current Conditions -  °F | °C
As of 6:35 AM on Thursday 29 Jan 2015 (Local Time) from KCIN Reporting Station
Overcast Overcast  
Wind Chill: 22°   Ceiling: 1800
Heat Index: 34°   Visibility: 10mi
Dew Point: 30°   Wind: 22mph
Humidity: 87%   Direction: 330°NNW
Pressure: 30.13"   Gusts: 33mph
Location:  42.07°N, 94.87°W
Report Text: KCIN 291235Z AUTO 33019G29KT 10SM OVC018 01/M01 A3013 RMK AO2
Loading
Personal Weather Stations






























Interactive Weather Map New forecast layout! Learn more

10-Day Weather Forecast

Advertisements
Track Severe Weather on mobile